createdAt,value
2018-06-11T00:02:00.252Z,92.70
2018-06-11T00:04:29.561Z,92.90
2018-06-11T00:06:58.788Z,93.10
2018-06-11T00:09:28.053Z,93.30
2018-06-11T00:11:57.369Z,93.30
2018-06-11T00:14:26.592Z,93.30
2018-06-11T00:16:55.865Z,93.20
2018-06-11T00:19:25.409Z,93.20
2018-06-11T00:21:54.731Z,93.30
2018-06-11T00:24:24.092Z,93.20
2018-06-11T00:26:53.409Z,93.20
2018-06-11T00:29:22.697Z,93.30
2018-06-11T00:31:52.048Z,93.40
2018-06-11T00:34:21.364Z,93.30
2018-06-11T00:36:50.774Z,93.40
2018-06-11T00:39:20.126Z,93.50
2018-06-11T00:41:49.496Z,93.60
2018-06-11T00:46:47.707Z,93.90
2018-06-11T00:49:17.094Z,93.80
2018-06-11T00:51:46.456Z,93.90
2018-06-11T00:54:15.729Z,94.00
2018-06-11T00:56:45.078Z,94.00
2018-06-11T00:59:14.387Z,93.90
2018-06-11T01:01:43.702Z,94.20
2018-06-11T01:04:13.024Z,94.20
2018-06-11T01:06:42.341Z,94.10
2018-06-11T01:09:11.663Z,94.00
2018-06-11T01:11:40.918Z,94.00
2018-06-11T01:14:10.237Z,94.00
2018-06-11T01:16:39.523Z,94.00
2018-06-11T01:19:08.875Z,94.00
2018-06-11T01:21:38.223Z,94.10
2018-06-11T01:24:07.558Z,94.10
2018-06-11T01:26:37.135Z,94.20
2018-06-11T01:29:06.418Z,94.20
2018-06-11T01:31:35.658Z,94.10
2018-06-11T01:34:04.984Z,94.10
2018-06-11T01:36:34.246Z,94.30
2018-06-11T01:39:03.692Z,94.30
2018-06-11T01:41:32.996Z,94.40
2018-06-11T01:44:02.284Z,94.50
2018-06-11T01:46:31.611Z,94.90
2018-06-11T01:49:00.984Z,94.40
2018-06-11T01:51:30.299Z,94.40
2018-06-11T01:53:59.625Z,94.40
2018-06-11T01:56:28.882Z,94.30
2018-06-11T01:58:58.236Z,94.50
2018-06-11T02:01:27.605Z,94.60
2018-06-11T02:03:57.228Z,94.50
2018-06-11T02:06:26.525Z,94.80
2018-06-11T02:08:55.888Z,94.90
2018-06-11T02:11:25.303Z,95.30
2018-06-11T02:13:54.628Z,95.30
2018-06-11T02:16:23.984Z,95.40
2018-06-11T02:18:53.355Z,95.30
2018-06-11T02:21:22.786Z,95.30
2018-06-11T02:23:52.266Z,95.20
2018-06-11T02:26:21.588Z,95.60
2018-06-11T02:28:50.871Z,95.30
2018-06-11T02:31:20.172Z,95.10
2018-06-11T02:33:49.393Z,95.00
2018-06-11T02:36:18.775Z,94.90
2018-06-11T02:38:48.037Z,94.70
2018-06-11T02:41:17.339Z,94.80
2018-06-11T02:43:46.659Z,94.70
2018-06-11T02:46:15.999Z,94.60
2018-06-11T02:48:45.410Z,94.50
2018-06-11T02:51:15.346Z,94.40
2018-06-11T02:53:44.749Z,94.30
2018-06-11T02:56:14.025Z,94.20
2018-06-11T02:58:43.337Z,94.20
2018-06-11T03:01:12.621Z,94.10
2018-06-11T03:03:42.012Z,93.90
2018-06-11T03:06:11.315Z,93.90
2018-06-11T03:08:40.628Z,93.80
2018-06-11T03:11:09.952Z,93.70
2018-06-11T03:13:39.261Z,93.70
2018-06-11T03:16:08.610Z,93.60
2018-06-11T03:18:37.916Z,93.60
2018-06-11T03:21:07.244Z,93.60
2018-06-11T03:23:43.231Z,93.50
2018-06-11T03:26:12.795Z,93.50
2018-06-11T03:28:42.055Z,93.40
2018-06-11T03:31:11.397Z,93.40
2018-06-11T03:33:40.718Z,93.40
2018-06-11T03:36:10.067Z,93.30
2018-06-11T03:38:39.321Z,93.20
2018-06-11T03:41:08.607Z,93.20
2018-06-11T03:43:37.886Z,93.20
2018-06-11T03:46:07.237Z,93.10
2018-06-11T03:48:36.620Z,93.20
2018-06-11T03:51:05.996Z,93.10
2018-06-11T03:53:35.425Z,93.00
2018-06-11T03:56:04.742Z,93.10
2018-06-11T03:58:34.068Z,93.10
2018-06-11T04:03:32.210Z,93.10
2018-06-11T04:06:01.952Z,93.10
2018-06-11T04:08:31.295Z,93.20
2018-06-11T04:11:00.644Z,93.10
2018-06-11T04:13:29.960Z,93.00
2018-06-11T04:15:59.306Z,92.80
2018-06-11T04:18:28.557Z,92.60
2018-06-11T04:20:57.865Z,92.40
2018-06-11T04:23:27.198Z,92.40
2018-06-11T04:25:56.545Z,92.30
2018-06-11T04:28:25.790Z,92.10
2018-06-11T04:30:55.088Z,92.00
2018-06-11T04:33:24.368Z,91.90
2018-06-11T04:35:53.745Z,91.70
2018-06-11T04:38:23.089Z,91.50
2018-06-11T04:40:52.395Z,91.40
2018-06-11T04:43:21.649Z,91.30
2018-06-11T04:45:50.989Z,91.10
2018-06-11T04:48:20.538Z,90.70
2018-06-11T04:50:49.893Z,90.50
2018-06-11T04:55:48.077Z,90.40
2018-06-11T05:00:46.347Z,89.90
2018-06-11T05:03:15.629Z,90.00
2018-06-11T05:05:45.044Z,90.00
2018-06-11T05:08:14.360Z,89.60
2018-06-11T05:10:43.594Z,89.30
2018-06-11T05:13:12.952Z,88.90
2018-06-11T05:15:42.191Z,88.20
2018-06-11T05:18:11.736Z,88.10
2018-06-11T05:20:41.020Z,87.80
2018-06-11T05:23:10.498Z,87.30
2018-06-11T05:25:40.196Z,87.00
2018-06-11T05:28:09.708Z,86.50
2018-06-11T05:30:39.030Z,85.50
2018-06-11T05:33:08.390Z,85.10
2018-06-11T05:35:37.715Z,84.70
2018-06-11T05:38:07.169Z,84.50
2018-06-11T05:40:36.457Z,83.70
2018-06-11T05:43:05.970Z,83.40
2018-06-11T05:45:35.240Z,83.20
2018-06-11T05:48:04.728Z,83.20
2018-06-11T05:50:34.100Z,82.50
2018-06-11T05:53:03.391Z,79.00
2018-06-11T05:55:32.708Z,75.30
2018-06-11T05:58:02.086Z,71.30
2018-06-11T06:00:31.535Z,67.80
2018-06-11T06:03:00.806Z,64.00
2018-06-11T06:05:30.116Z,61.40
2018-06-11T06:07:59.523Z,58.80
2018-06-11T06:10:28.929Z,58.20
2018-06-11T06:12:58.245Z,55.30
2018-06-11T06:15:27.676Z,54.70
2018-06-11T06:17:57.042Z,52.80
2018-06-11T06:20:26.369Z,53.50
2018-06-11T06:22:55.735Z,52.70
2018-06-11T06:25:25.051Z,53.00
2018-06-11T06:27:54.487Z,52.60
2018-06-11T06:30:23.874Z,51.80
2018-06-11T06:32:53.249Z,50.80
2018-06-11T06:35:22.617Z,51.00
2018-06-11T06:37:51.935Z,49.30
2018-06-11T06:40:21.377Z,49.90
2018-06-11T06:42:50.701Z,50.90
2018-06-11T06:45:20.064Z,51.20
2018-06-11T06:47:49.397Z,50.40
2018-06-11T06:50:18.770Z,50.20
2018-06-11T06:52:48.044Z,51.00
2018-06-11T06:55:17.371Z,51.60
2018-06-11T06:57:46.683Z,52.80
2018-06-11T07:00:15.993Z,53.90
2018-06-11T07:02:45.720Z,54.60
2018-06-11T07:05:15.013Z,55.50
2018-06-11T07:10:13.195Z,56.10
2018-06-11T07:12:42.471Z,57.10
2018-06-11T07:15:12.389Z,54.90
2018-06-11T07:17:41.707Z,51.00
2018-06-11T07:20:11.103Z,49.70
2018-06-11T07:22:40.407Z,49.20
2018-06-11T07:25:09.913Z,50.10
2018-06-11T07:27:39.156Z,50.70
2018-06-11T07:30:08.933Z,51.90
2018-06-11T07:32:38.407Z,53.00
2018-06-11T07:35:07.965Z,53.90
2018-06-11T07:37:37.540Z,54.30
2018-06-11T07:40:06.843Z,54.10
2018-06-11T07:42:36.209Z,54.30
2018-06-11T07:50:03.670Z,52.10
2018-06-11T07:52:32.944Z,51.00
2018-06-11T07:55:02.210Z,50.60
2018-06-11T07:57:31.551Z,50.70
2018-06-11T08:00:01.012Z,50.90
2018-06-11T08:02:30.563Z,50.80
2018-06-11T08:07:28.729Z,50.50
2018-06-11T08:09:58.054Z,50.20
2018-06-11T08:12:27.658Z,48.90
2018-06-11T08:14:57.054Z,48.30
2018-06-11T08:17:26.356Z,50.00
2018-06-11T08:19:55.721Z,47.00
2018-06-11T08:22:28.274Z,44.20
2018-06-11T08:25:02.488Z,38.10
2018-06-11T08:27:34.584Z,37.00
2018-06-11T08:30:07.116Z,36.70
2018-06-11T08:32:39.128Z,34.80
2018-06-11T08:35:11.146Z,34.30
2018-06-11T08:37:40.670Z,34.80
2018-06-11T08:40:10.091Z,33.90
2018-06-11T08:42:39.393Z,30.60
2018-06-11T08:47:37.641Z,27.90
2018-06-11T08:50:07.276Z,28.40
2018-06-11T08:52:36.548Z,29.60
2018-06-11T08:55:06.487Z,29.80
2018-06-11T08:57:35.879Z,29.00
2018-06-11T09:00:06.504Z,30.00
2018-06-11T09:02:35.759Z,29.40
2018-06-11T09:07:34.051Z,26.70
2018-06-11T09:10:03.404Z,26.00
2018-06-11T09:12:32.977Z,27.30
2018-06-11T09:15:02.348Z,27.80
2018-06-11T09:17:31.754Z,29.00
2018-06-11T09:20:01.284Z,30.70
2018-06-11T09:22:30.908Z,30.50
2018-06-11T09:25:00.351Z,29.10
2018-06-11T09:27:30.407Z,26.70
2018-06-11T09:29:59.840Z,25.30
2018-06-11T09:32:29.138Z,25.40
2018-06-11T09:34:58.692Z,27.20
2018-06-11T09:37:28.235Z,27.70
2018-06-11T09:39:57.648Z,26.60
2018-06-11T09:42:26.892Z,25.40
2018-06-11T09:44:56.170Z,24.80
2018-06-11T09:47:25.443Z,24.00
2018-06-11T09:49:54.792Z,22.30
2018-06-11T09:52:24.374Z,22.70
2018-06-11T09:54:53.903Z,23.40
2018-06-11T09:57:23.290Z,24.00
2018-06-11T09:59:52.652Z,25.30
2018-06-11T10:02:22.493Z,26.70
2018-06-11T10:04:52.200Z,27.20
2018-06-11T10:07:21.515Z,27.80
2018-06-11T10:09:50.944Z,27.10
2018-06-11T10:12:20.367Z,25.90
2018-06-11T10:14:49.755Z,25.40
2018-06-11T10:17:19.087Z,23.90
2018-06-11T10:19:48.384Z,23.10
2018-06-11T10:22:17.686Z,22.40
2018-06-11T10:24:47.016Z,22.10
2018-06-11T10:27:16.416Z,21.40
2018-06-11T10:29:45.719Z,21.20
2018-06-11T10:32:15.091Z,20.90
2018-06-11T10:34:44.502Z,20.70
2018-06-11T10:37:13.785Z,20.40
2018-06-11T10:39:43.125Z,20.20
2018-06-11T10:42:12.581Z,19.60
2018-06-11T10:44:41.861Z,20.20
2018-06-11T10:47:11.159Z,19.90
2018-06-11T10:49:40.428Z,19.60
2018-06-11T10:52:09.820Z,19.50
2018-06-11T10:54:39.110Z,19.60
2018-06-11T10:57:08.532Z,19.30
2018-06-11T10:59:38.082Z,19.60
2018-06-11T11:02:07.400Z,19.40
2018-06-11T11:04:36.779Z,19.70
2018-06-11T11:07:06.188Z,20.00
2018-06-11T11:09:35.574Z,19.40
2018-06-11T11:12:04.880Z,19.20
2018-06-11T11:14:34.232Z,19.10
2018-06-11T11:17:03.709Z,18.80
2018-06-11T11:19:33.159Z,18.60
2018-06-11T11:22:02.547Z,18.50
2018-06-11T11:24:32.169Z,18.50
2018-06-11T11:27:01.552Z,18.50
2018-06-11T11:29:30.928Z,18.80
2018-06-11T11:32:00.313Z,19.10
2018-06-11T11:34:29.609Z,18.80
2018-06-11T11:36:58.918Z,18.80
2018-06-11T11:39:28.680Z,19.10
2018-06-11T11:41:58.063Z,18.80
2018-06-11T11:44:27.357Z,18.90
2018-06-11T11:46:57.076Z,19.10
2018-06-11T11:49:26.461Z,19.40
2018-06-11T11:51:55.873Z,20.10
2018-06-11T11:54:25.195Z,20.30
2018-06-11T11:56:54.540Z,20.70
2018-06-11T11:59:23.957Z,21.70
2018-06-11T12:01:53.345Z,22.30
2018-06-11T12:04:22.811Z,22.70
2018-06-11T12:06:52.357Z,22.70
2018-06-11T12:09:21.665Z,23.30
2018-06-11T12:11:51.317Z,23.50
2018-06-11T12:14:20.703Z,23.20
2018-06-11T12:16:50.155Z,23.50
2018-06-11T12:19:19.785Z,23.70
2018-06-11T12:21:49.149Z,24.00
2018-06-11T12:24:18.731Z,24.00
2018-06-11T12:26:48.098Z,23.90
2018-06-11T12:29:17.498Z,23.70
2018-06-11T12:31:46.778Z,23.50
2018-06-11T12:34:16.176Z,23.60
2018-06-11T12:36:45.830Z,24.00
2018-06-11T12:39:15.113Z,24.10
2018-06-11T12:41:44.843Z,24.50
2018-06-11T12:44:14.439Z,24.10
2018-06-11T12:46:43.717Z,23.60
2018-06-11T12:49:13.063Z,24.00
2018-06-11T12:51:42.436Z,24.30
2018-06-11T12:54:12.657Z,24.50
2018-06-11T12:56:42.182Z,24.30
2018-06-11T12:59:11.601Z,24.30
2018-06-11T13:01:41.270Z,24.00
2018-06-11T13:04:10.669Z,23.60
2018-06-11T13:06:39.984Z,23.70
2018-06-11T13:09:09.349Z,24.30
2018-06-11T13:11:38.681Z,24.80
2018-06-11T13:14:07.987Z,24.60
2018-06-11T13:16:37.661Z,24.30
2018-06-11T13:19:07.231Z,24.60
2018-06-11T13:21:36.797Z,24.40
2018-06-11T13:24:06.394Z,24.10
2018-06-11T13:29:04.869Z,23.10
2018-06-11T13:31:34.324Z,23.10
2018-06-11T13:34:03.736Z,22.90
2018-06-11T13:36:33.132Z,23.00
2018-06-11T13:39:02.844Z,22.90
2018-06-11T13:41:32.212Z,22.90
2018-06-11T13:44:01.531Z,22.80
2018-06-11T13:46:30.897Z,23.00
2018-06-11T13:49:01.043Z,23.20
2018-06-11T13:51:30.529Z,23.60
2018-06-11T13:53:59.907Z,23.70
2018-06-11T13:56:29.567Z,23.50
2018-06-11T13:58:59.493Z,23.50
2018-06-11T14:01:28.892Z,22.90
2018-06-11T14:03:58.378Z,23.50
2018-06-11T14:06:27.753Z,23.20
2018-06-11T14:08:57.874Z,22.70
2018-06-11T14:11:27.205Z,22.70
2018-06-11T14:13:56.472Z,22.80
2018-06-11T14:16:25.718Z,22.60
2018-06-11T14:18:55.211Z,22.60
2018-06-11T14:21:24.449Z,22.50
2018-06-11T14:23:53.712Z,22.30
2018-06-11T14:26:23.013Z,22.30
2018-06-11T14:28:52.391Z,22.30
2018-06-11T14:31:21.995Z,22.30
2018-06-11T14:33:52.025Z,22.40
2018-06-11T14:36:22.437Z,22.20
2018-06-11T14:38:51.702Z,22.30
2018-06-11T14:41:20.964Z,22.30
2018-06-11T14:43:50.343Z,22.10
2018-06-11T14:46:20.187Z,22.30
2018-06-11T14:48:49.592Z,22.60
2018-06-11T14:53:48.195Z,22.50
2018-06-11T14:56:17.528Z,22.70
2018-06-11T14:58:46.844Z,23.00
2018-06-11T15:01:16.181Z,22.80
2018-06-11T15:03:46.205Z,23.00
2018-06-11T15:06:16.312Z,22.90
2018-06-11T15:08:45.652Z,22.90
2018-06-11T15:11:15.900Z,23.00
2018-06-11T15:13:45.501Z,23.10
2018-06-11T15:16:15.185Z,23.60
2018-06-11T15:18:44.504Z,24.90
2018-06-11T15:21:13.865Z,26.10
2018-06-11T15:23:43.197Z,27.30
2018-06-11T15:26:12.650Z,28.30
2018-06-11T15:28:41.950Z,29.10
2018-06-11T15:31:11.317Z,29.50
2018-06-11T15:33:40.766Z,30.10
2018-06-11T15:36:10.163Z,31.20
2018-06-11T15:38:39.836Z,32.50
2018-06-11T15:41:09.455Z,33.00
2018-06-11T15:43:38.941Z,33.60
2018-06-11T15:46:09.296Z,34.00
2018-06-11T15:48:38.606Z,34.40
2018-06-11T15:51:08.018Z,35.00
2018-06-11T15:53:37.284Z,34.70
2018-06-11T15:56:06.897Z,34.70
2018-06-11T15:58:40.301Z,35.30
2018-06-11T16:01:13.392Z,36.00
2018-06-11T16:03:43.370Z,36.90
2018-06-11T16:08:44.406Z,37.30
2018-06-11T16:11:14.185Z,37.60
2018-06-11T16:13:44.439Z,37.80
2018-06-11T16:16:14.140Z,37.80
2018-06-11T16:18:44.130Z,37.80
2018-06-11T16:21:15.837Z,37.90
2018-06-11T16:23:47.142Z,37.90
2018-06-11T16:26:17.740Z,38.30
2018-06-11T16:28:51.255Z,38.30
2018-06-11T16:31:21.526Z,38.70
2018-06-11T16:33:54.920Z,38.70
2018-06-11T16:36:27.105Z,39.40
2018-06-11T16:38:59.172Z,39.00
2018-06-11T16:41:29.749Z,39.00
2018-06-11T16:43:59.903Z,39.20
2018-06-11T16:46:31.345Z,39.10
2018-06-11T16:49:03.873Z,39.30
2018-06-11T16:51:38.773Z,39.20
2018-06-11T16:54:08.305Z,39.10
2018-06-11T16:56:37.780Z,39.20
2018-06-11T16:59:07.267Z,39.80
2018-06-11T17:04:06.334Z,39.30
2018-06-11T17:06:35.830Z,39.10
2018-06-11T17:09:07.779Z,39.20
2018-06-11T17:11:37.867Z,39.10
2018-06-11T17:14:07.551Z,39.20
2018-06-11T17:16:37.370Z,39.30
2018-06-11T17:19:06.962Z,39.50
2018-06-11T17:21:36.663Z,39.50
2018-06-11T17:24:07.488Z,39.50
2018-06-11T17:26:37.260Z,39.50
2018-06-11T17:29:07.362Z,39.50
2018-06-11T17:31:37.496Z,39.70
2018-06-11T17:34:08.153Z,40.80
2018-06-11T17:36:38.360Z,40.30
2018-06-11T17:39:09.460Z,41.00
2018-06-11T17:41:40.000Z,40.90
2018-06-11T17:44:11.145Z,41.00
2018-06-11T17:46:41.147Z,41.00
2018-06-11T17:51:41.805Z,41.90
2018-06-11T17:54:14.590Z,42.10
2018-06-11T17:56:45.795Z,42.10
2018-06-11T17:59:17.890Z,42.50
2018-06-11T18:01:50.943Z,42.60
2018-06-11T18:04:21.564Z,42.80
2018-06-11T18:06:52.254Z,42.80
2018-06-11T18:09:23.028Z,42.80
2018-06-11T18:11:52.995Z,42.90
2018-06-11T18:14:23.321Z,43.20
2018-06-11T18:16:53.573Z,43.60
2018-06-11T18:19:25.272Z,44.10
2018-06-11T18:21:56.705Z,44.50
2018-06-11T18:24:26.656Z,44.80
2018-06-11T18:26:59.281Z,45.30
2018-06-11T18:29:31.595Z,45.50
2018-06-11T18:32:03.771Z,46.10
2018-06-11T18:34:34.136Z,47.00
2018-06-11T18:37:04.976Z,47.00
2018-06-11T18:39:34.870Z,46.90
2018-06-11T18:42:04.550Z,47.30
2018-06-11T18:44:34.110Z,47.60
2018-06-11T18:47:04.055Z,47.80
2018-06-11T18:49:33.655Z,48.00
2018-06-11T18:52:03.624Z,48.00
2018-06-11T18:54:35.334Z,48.50
2018-06-11T18:57:05.604Z,48.40
2018-06-11T18:59:35.065Z,48.80
2018-06-11T19:02:04.764Z,48.90
2018-06-11T19:04:34.583Z,49.00
2018-06-11T19:07:04.085Z,49.40
2018-06-11T19:09:34.055Z,49.50
2018-06-11T19:12:03.909Z,49.40
2018-06-11T19:14:33.700Z,49.60
2018-06-11T19:17:04.711Z,50.20
2018-06-11T19:19:34.690Z,50.30
2018-06-11T19:22:04.772Z,50.60
2018-06-11T19:24:34.667Z,51.00
2018-06-11T19:27:04.304Z,51.50
2018-06-11T19:29:33.968Z,52.10
2018-06-11T19:32:04.245Z,52.50
2018-06-11T19:34:34.300Z,52.40
2018-06-11T19:37:04.084Z,53.00
2018-06-11T19:39:34.052Z,53.10
2018-06-11T19:42:03.919Z,53.40
2018-06-11T19:44:33.844Z,53.90
2018-06-11T19:47:04.398Z,54.90
2018-06-11T19:49:33.895Z,55.30
2018-06-11T19:52:03.649Z,55.40
2018-06-11T19:54:33.558Z,55.70
2018-06-11T19:57:03.053Z,56.10
2018-06-11T19:59:33.102Z,57.00
2018-06-11T20:02:02.828Z,57.30
2018-06-11T20:04:32.272Z,57.50
2018-06-11T20:07:01.804Z,58.00
2018-06-11T20:09:31.531Z,58.20
2018-06-11T20:12:00.952Z,59.00
2018-06-11T20:14:30.663Z,58.90
2018-06-11T20:17:00.068Z,59.60
2018-06-11T20:19:29.949Z,59.70
2018-06-11T20:21:59.203Z,59.90
2018-06-11T20:24:28.574Z,60.30
2018-06-11T20:26:57.910Z,60.80
2018-06-11T20:29:27.312Z,60.90
2018-06-11T20:31:56.673Z,61.40
2018-06-11T20:34:26.151Z,61.70
2018-06-11T20:36:55.786Z,62.90
2018-06-11T20:39:25.661Z,63.20
2018-06-11T20:41:55.140Z,64.00
2018-06-11T20:44:24.652Z,64.20
2018-06-11T20:46:54.156Z,64.60
2018-06-11T20:49:23.569Z,65.90
2018-06-11T20:51:53.222Z,66.20
2018-06-11T20:54:22.590Z,66.20
2018-06-11T20:56:52.401Z,66.70
2018-06-11T20:59:21.922Z,66.40
2018-06-11T21:01:51.568Z,67.80
2018-06-11T21:04:21.064Z,68.50
2018-06-11T21:06:50.519Z,70.00
2018-06-11T21:09:19.911Z,69.60
2018-06-11T21:11:49.156Z,69.80
2018-06-11T21:14:18.561Z,71.70
2018-06-11T21:16:47.943Z,71.00
2018-06-11T21:19:17.333Z,71.60
2018-06-11T21:21:46.703Z,71.70
2018-06-11T21:24:16.093Z,71.80
2018-06-11T21:26:45.382Z,72.30
2018-06-11T21:29:14.775Z,72.60
2018-06-11T21:31:44.104Z,72.80
2018-06-11T21:34:13.445Z,73.20
2018-06-11T21:36:43.365Z,73.80
2018-06-11T21:39:12.796Z,74.20
2018-06-11T21:41:42.264Z,75.00
2018-06-11T21:44:11.619Z,75.30
2018-06-11T21:49:10.664Z,76.10
2018-06-11T21:51:40.039Z,76.40
2018-06-11T21:54:09.600Z,76.50
2018-06-11T21:56:38.906Z,76.50
2018-06-11T21:59:08.400Z,77.40
2018-06-11T22:01:37.708Z,77.70
2018-06-11T22:04:08.155Z,77.90
2018-06-11T22:06:37.985Z,79.10
2018-06-11T22:09:08.623Z,79.00
2018-06-11T22:11:37.918Z,79.40
2018-06-11T22:14:07.262Z,79.60
2018-06-11T22:16:36.559Z,79.50
2018-06-11T22:19:05.955Z,80.00
2018-06-11T22:21:35.994Z,80.20
2018-06-11T22:24:05.281Z,80.20
2018-06-11T22:26:34.680Z,80.40
2018-06-11T22:29:04.018Z,80.70
2018-06-11T22:34:02.267Z,81.70
2018-06-11T22:36:31.552Z,81.90
2018-06-11T22:39:00.930Z,81.90
2018-06-11T22:41:30.203Z,82.00
2018-06-11T22:43:59.510Z,82.30
2018-06-11T22:46:28.779Z,82.50
2018-06-11T22:48:58.091Z,83.20
2018-06-11T22:51:27.477Z,82.80
2018-06-11T22:53:56.820Z,83.50
2018-06-11T22:56:26.094Z,83.70
2018-06-11T22:58:55.858Z,84.40
2018-06-11T23:01:25.233Z,83.60
2018-06-11T23:03:54.589Z,83.60
2018-06-11T23:06:24.022Z,83.50
2018-06-11T23:08:53.402Z,84.00
2018-06-11T23:11:22.749Z,83.70
2018-06-11T23:13:52.045Z,83.50
2018-06-11T23:16:21.373Z,84.00
2018-06-11T23:18:50.653Z,83.90
2018-06-11T23:21:19.997Z,84.10
2018-06-11T23:23:49.328Z,84.40
2018-06-11T23:26:18.724Z,85.00
2018-06-11T23:28:48.116Z,85.00
2018-06-11T23:31:17.587Z,85.10
2018-06-11T23:33:46.849Z,85.70
2018-06-11T23:36:16.203Z,85.90
2018-06-11T23:38:45.556Z,86.60
2018-06-11T23:41:31.639Z,86.40
2018-06-11T23:50:00.346Z,86.60
2018-06-11T23:52:29.722Z,87.00
2018-06-11T23:54:59.104Z,86.80
2018-06-11T23:57:28.460Z,87.30
2018-06-11T23:59:58.201Z,87.80
